sensor_id;sensor_type;location;lat;lon;timestamp;pressure;altitude;pressure_sealevel;temperature;humidity
21086;BME280;34247;50.064;19.970;2023-02-08T00:00:48;101770.41;;;0.26;85.05
21086;BME280;34247;50.064;19.970;2023-02-08T00:01:55;101773.09;;;0.30;84.90
21086;BME280;34247;50.064;19.970;2023-02-08T00:03:00;101779.09;;;0.24;85.13
21086;BME280;34247;50.064;19.970;2023-02-08T00:04:04;101780.91;;;0.30;84.81
21086;BME280;34247;50.064;19.970;2023-02-08T00:05:18;101786.13;;;0.30;84.95
21086;BME280;34247;50.064;19.970;2023-02-08T00:06:23;101783.47;;;0.28;84.85
21086;BME280;34247;50.064;19.970;2023-02-08T00:07:28;101786.09;;;0.28;85.06
21086;BME280;34247;50.064;19.970;2023-02-08T00:08:36;101787.03;;;0.32;85.00
21086;BME280;34247;50.064;19.970;2023-02-08T00:09:45;101786.16;;;0.33;84.81
21086;BME280;34247;50.064;19.970;2023-02-08T00:10:51;101786.19;;;0.34;85.05
21086;BME280;34247;50.064;19.970;2023-02-08T00:11:57;101787.06;;;0.35;84.72
21086;BME280;34247;50.064;19.970;2023-02-08T00:13:01;101793.13;;;0.32;84.75
21086;BME280;34247;50.064;19.970;2023-02-08T00:14:13;101787.91;;;0.32;85.04
21086;BME280;34247;50.064;19.970;2023-02-08T00:15:19;101788.81;;;0.36;84.89
21086;BME280;34247;50.064;19.970;2023-02-08T00:16:26;101787.06;;;0.36;84.75
21086;BME280;34247;50.064;19.970;2023-02-08T00:17:31;101786.25;;;0.39;84.92
21086;BME280;34247;50.064;19.970;2023-02-08T00:18:36;101793.22;;;0.37;84.70
21086;BME280;34247;50.064;19.970;2023-02-08T00:19:41;101787.13;;;0.39;84.86
21086;BME280;34247;50.064;19.970;2023-02-08T00:20:47;101789.72;;;0.38;84.64
21086;BME280;34247;50.064;19.970;2023-02-08T00:21:53;101788.88;;;0.39;84.57
21086;BME280;34247;50.064;19.970;2023-02-08T00:23:01;101783.59;;;0.36;84.75
21086;BME280;34247;50.064;19.970;2023-02-08T00:24:16;101788.00;;;0.38;84.67
21086;BME280;34247;50.064;19.970;2023-02-08T00:25:26;101788.00;;;0.38;84.54
21086;BME280;34247;50.064;19.970;2023-02-08T00:26:33;101779.19;;;0.30;84.75
21086;BME280;34247;50.064;19.970;2023-02-08T00:27:45;101788.88;;;0.39;84.71
21086;BME280;34247;50.064;19.970;2023-02-08T00:28:50;101793.22;;;0.40;84.72
21086;BME280;34247;50.064;19.970;2023-02-08T00:29:55;101790.63;;;0.40;84.65
21086;BME280;34247;50.064;19.970;2023-02-08T00:31:04;101800.19;;;0.38;84.69
21086;BME280;34247;50.064;19.970;2023-02-08T00:32:12;101798.47;;;0.41;84.71
21086;BME280;34247;50.064;19.970;2023-02-08T00:33:18;101801.09;;;0.41;84.72
21086;BME280;34247;50.064;19.970;2023-02-08T00:34:22;101796.75;;;0.43;84.51
21086;BME280;34247;50.064;19.970;2023-02-08T00:35:30;101801.97;;;0.42;84.54
21086;BME280;34247;50.064;19.970;2023-02-08T00:36:35;101794.13;;;0.42;84.49
21086;BME280;34247;50.064;19.970;2023-02-08T00:37:42;101803.75;;;0.44;84.66
21086;BME280;34247;50.064;19.970;2023-02-08T00:38:51;101798.53;;;0.46;84.48
21086;BME280;34247;50.064;19.970;2023-02-08T00:39:57;101791.59;;;0.46;84.59
21086;BME280;34247;50.064;19.970;2023-02-08T00:41:38;101792.44;;;0.44;84.88
21086;BME280;34247;50.064;19.970;2023-02-08T00:42:59;101797.69;;;0.47;84.76
21086;BME280;34247;50.064;19.970;2023-02-08T00:44:08;101794.13;;;0.43;84.58
21086;BME280;34247;50.064;19.970;2023-02-08T00:45:23;101799.44;;;0.48;84.56
21086;BME280;34247;50.064;19.970;2023-02-08T00:46:29;101789.84;;;0.48;84.73
21086;BME280;34247;50.064;19.970;2023-02-08T00:47:40;101789.84;;;0.48;84.66
21086;BME280;34247;50.064;19.970;2023-02-08T00:49:22;101789.84;;;0.48;84.30
21086;BME280;34247;50.064;19.970;2023-02-08T00:50:40;101794.19;;;0.46;84.43
21086;BME280;34247;50.064;19.970;2023-02-08T00:51:48;101784.63;;;0.47;84.76
21086;BME280;34247;50.064;19.970;2023-02-08T00:52:53;101784.63;;;0.48;84.54
21086;BME280;34247;50.064;19.970;2023-02-08T00:53:58;101787.22;;;0.47;84.79
21086;BME280;34247;50.064;19.970;2023-02-08T00:55:05;101787.22;;;0.47;84.55
21086;BME280;34247;50.064;19.970;2023-02-08T00:56:15;101784.63;;;0.50;84.57
21086;BME280;34247;50.064;19.970;2023-02-08T00:57:21;101788.13;;;0.49;84.50
21086;BME280;34247;50.064;19.970;2023-02-08T00:58:32;101781.16;;;0.49;84.83
21086;BME280;34247;50.064;19.970;2023-02-08T00:59:39;101786.44;;;0.51;84.61
21086;BME280;34247;50.064;19.970;2023-02-08T01:00:45;101783.81;;;0.51;84.79
21086;BME280;34247;50.064;19.970;2023-02-08T01:01:49;101789.03;;;0.51;84.57
21086;BME280;34247;50.064;19.970;2023-02-08T01:02:56;101789.91;;;0.53;84.42
21086;BME280;34247;50.064;19.970;2023-02-08T01:04:02;101788.19;;;0.53;84.59
21086;BME280;34247;50.064;19.970;2023-02-08T01:05:19;101789.94;;;0.54;84.26
21086;BME280;34247;50.064;19.970;2023-02-08T01:06:23;101789.03;;;0.52;84.29
21086;BME280;34247;50.064;19.970;2023-02-08T01:07:28;101784.69;;;0.53;84.41
21086;BME280;34247;50.064;19.970;2023-02-08T01:08:34;101791.69;;;0.55;84.51
21086;BME280;34247;50.064;19.970;2023-02-08T01:09:38;101792.56;;;0.56;84.24
21086;BME280;34247;50.064;19.970;2023-02-08T01:10:43;101782.09;;;0.54;84.42
21086;BME280;34247;50.064;19.970;2023-02-08T01:11:47;101797.81;;;0.58;84.46
21086;BME280;34247;50.064;19.970;2023-02-08T01:12:52;101806.50;;;0.57;84.36
21086;BME280;34247;50.064;19.970;2023-02-08T01:13:58;101803.88;;;0.55;84.10
21086;BME280;34247;50.064;19.970;2023-02-08T01:15:03;101803.00;;;0.56;84.20
21086;BME280;34247;50.064;19.970;2023-02-08T01:16:20;101802.16;;;0.57;84.26
21086;BME280;34247;50.064;19.970;2023-02-08T01:17:25;101803.03;;;0.58;84.26
21086;BME280;34247;50.064;19.970;2023-02-08T01:18:30;101803.03;;;0.58;84.39
21086;BME280;34247;50.064;19.970;2023-02-08T01:19:35;101804.81;;;0.59;84.48
21086;BME280;34247;50.064;19.970;2023-02-08T01:20:40;101800.41;;;0.54;84.34
21086;BME280;34247;50.064;19.970;2023-02-08T01:21:45;101803.03;;;0.58;84.59
21086;BME280;34247;50.064;19.970;2023-02-08T01:22:52;101797.78;;;0.56;84.36
21086;BME280;34247;50.064;19.970;2023-02-08T01:23:57;101799.53;;;0.57;84.35
21086;BME280;34247;50.064;19.970;2023-02-08T01:25:03;101805.63;;;0.54;84.47
21086;BME280;34247;50.064;19.970;2023-02-08T01:26:17;101808.25;;;0.56;84.59
21086;BME280;34247;50.064;19.970;2023-02-08T01:27:23;101798.66;;;0.57;84.60
21086;BME280;34247;50.064;19.970;2023-02-08T01:28:28;101806.56;;;0.58;84.36
21086;BME280;34247;50.064;19.970;2023-02-08T01:29:33;101810.06;;;0.60;84.21
21086;BME280;34247;50.064;19.970;2023-02-08T01:30:37;101802.22;;;0.62;84.41
21086;BME280;34247;50.064;19.970;2023-02-08T01:31:46;101798.75;;;0.63;84.57
21086;BME280;34247;50.064;19.970;2023-02-08T01:32:51;101795.25;;;0.61;84.18
21086;BME280;34247;50.064;19.970;2023-02-08T01:34:15;101800.47;;;0.62;84.26
21086;BME280;34247;50.064;19.970;2023-02-08T01:35:20;101801.38;;;0.64;84.47
21086;BME280;34247;50.064;19.970;2023-02-08T01:36:28;101797.88;;;0.62;84.12
21086;BME280;34247;50.064;19.970;2023-02-08T01:37:34;101797.88;;;0.62;84.11
21086;BME280;34247;50.064;19.970;2023-02-08T01:38:42;101796.94;;;0.57;84.33
21086;BME280;34247;50.064;19.970;2023-02-08T01:39:48;101799.59;;;0.60;84.21
21086;BME280;34247;50.064;19.970;2023-02-08T01:40:54;101801.34;;;0.61;84.28
21086;BME280;34247;50.064;19.970;2023-02-08T01:42:00;101789.16;;;0.63;84.42
21086;BME280;34247;50.064;19.970;2023-02-08T01:43:34;101797.03;;;0.65;84.50
21086;BME280;34247;50.064;19.970;2023-02-08T01:45:22;101797.88;;;0.64;84.40
21086;BME280;34247;50.064;19.970;2023-02-08T01:46:28;101797.03;;;0.65;84.18
21086;BME280;34247;50.064;19.970;2023-02-08T01:47:37;101795.31;;;0.65;84.49
21086;BME280;34247;50.064;19.970;2023-02-08T01:48:43;101799.69;;;0.66;84.13
21086;BME280;34247;50.064;19.970;2023-02-08T01:49:51;101790.97;;;0.66;84.29
21086;BME280;34247;50.064;19.970;2023-02-08T01:51:26;101798.81;;;0.67;84.42
21086;BME280;34247;50.064;19.970;2023-02-08T01:52:28;101803.09;;;0.64;84.36
21086;BME280;34247;50.064;19.970;2023-02-08T01:53:38;101803.16;;;0.65;84.61
21086;BME280;34247;50.064;19.970;2023-02-08T01:55:01;101797.94;;;0.67;84.70
21086;BME280;34247;50.064;19.970;2023-02-08T01:56:38;101809.28;;;0.67;84.75
21086;BME280;34247;50.064;19.970;2023-02-08T01:58:38;101802.31;;;0.68;84.62
21086;BME280;34247;50.064;19.970;2023-02-08T02:00:27;101797.94;;;0.68;84.76
21086;BME280;34247;50.064;19.970;2023-02-08T02:01:39;101807.53;;;0.69;84.56
21086;BME280;34247;50.064;19.970;2023-02-08T02:03:14;101804.94;;;0.71;84.53
21086;BME280;34247;50.064;19.970;2023-02-08T02:04:30;101799.69;;;0.69;84.61
21086;BME280;34247;50.064;19.970;2023-02-08T02:05:54;101804.03;;;0.67;84.74
21086;BME280;34247;50.064;19.970;2023-02-08T02:07:30;101808.41;;;0.67;84.71
21086;BME280;34247;50.064;19.970;2023-02-08T02:08:41;101797.06;;;0.68;84.89
21086;BME280;34247;50.064;19.970;2023-02-08T02:12:31;101790.81;;;0.55;85.16
21086;BME280;34247;50.064;19.970;2023-02-08T02:13:42;101792.63;;;0.59;85.22
21086;BME280;34247;50.064;19.970;2023-02-08T02:14:52;101806.66;;;0.66;85.10
21086;BME280;34247;50.064;19.970;2023-02-08T02:16:26;101797.88;;;0.62;84.79
21086;BME280;34247;50.064;19.970;2023-02-08T02:17:39;101810.09;;;0.63;84.92
21086;BME280;34247;50.064;19.970;2023-02-08T02:18:53;101797.00;;;0.62;84.84
21086;BME280;34247;50.064;19.970;2023-02-08T02:31:01;101804.94;;;0.72;84.93
21086;BME280;34247;50.064;19.970;2023-02-08T02:35:07;101808.41;;;0.68;84.87
21086;BME280;34247;50.064;19.970;2023-02-08T02:36:42;101808.44;;;0.71;85.05
21086;BME280;34247;50.064;19.970;2023-02-08T02:40:55;101815.41;;;0.71;85.34
21086;BME280;34247;50.064;19.970;2023-02-08T02:42:32;101815.38;;;0.69;85.08
21086;BME280;34247;50.064;19.970;2023-02-08T02:50:42;101812.78;;;0.71;85.41
21086;BME280;34247;50.064;19.970;2023-02-08T02:52:24;101798.81;;;0.67;85.30
21086;BME280;34247;50.064;19.970;2023-02-08T02:54:23;101814.53;;;0.72;85.41
21086;BME280;34247;50.064;19.970;2023-02-08T02:56:23;101816.25;;;0.70;85.37
21086;BME280;34247;50.064;19.970;2023-02-08T02:57:57;101818.88;;;0.71;85.57
21086;BME280;34247;50.064;19.970;2023-02-08T02:59:14;101813.66;;;0.71;85.52
21086;BME280;34247;50.064;19.970;2023-02-08T03:00:34;101822.44;;;0.73;85.63
21086;BME280;34247;50.064;19.970;2023-02-08T03:01:46;101814.59;;;0.73;85.48
21086;BME280;34247;50.064;19.970;2023-02-08T03:03:01;101825.00;;;0.72;85.93
21086;BME280;34247;50.064;19.970;2023-02-08T03:04:50;101817.16;;;0.72;86.16
21086;BME280;34247;50.064;19.970;2023-02-08T03:06:14;101828.47;;;0.72;85.87
21086;BME280;34247;50.064;19.970;2023-02-08T03:07:46;101832.84;;;0.72;86.14
21086;BME280;34247;50.064;19.970;2023-02-08T03:09:34;101827.59;;;0.72;86.35
21086;BME280;34247;50.064;19.970;2023-02-08T03:11:23;101832.00;;;0.73;86.68
21086;BME280;34247;50.064;19.970;2023-02-08T03:23:34;101838.91;;;0.68;87.62
21086;BME280;34247;50.064;19.970;2023-02-08T03:25:02;101841.53;;;0.71;88.03
21086;BME280;34247;50.064;19.970;2023-02-08T03:27:12;101851.03;;;0.63;88.83
21086;BME280;34247;50.064;19.970;2023-02-08T03:28:26;101854.44;;;0.57;88.71
21086;BME280;34247;50.064;19.970;2023-02-08T03:30:02;101848.31;;;0.55;88.85
21086;BME280;34247;50.064;19.970;2023-02-08T03:33:19;101855.38;;;0.62;88.48
21086;BME280;34247;50.064;19.970;2023-02-08T03:34:47;101852.78;;;0.64;88.14
21086;BME280;34247;50.064;19.970;2023-02-08T03:38:52;101857.97;;;0.61;88.92
21086;BME280;34247;50.064;19.970;2023-02-08T03:40:29;101859.72;;;0.60;88.52
21086;BME280;34247;50.064;19.970;2023-02-08T03:41:42;101865.84;;;0.62;88.41
21086;BME280;34247;50.064;19.970;2023-02-08T03:42:51;101864.13;;;0.64;88.50
21086;BME280;34247;50.064;19.970;2023-02-08T03:44:04;101864.13;;;0.64;88.37
21086;BME280;34247;50.064;19.970;2023-02-08T03:45:33;101863.28;;;0.65;88.60
21086;BME280;34247;50.064;19.970;2023-02-08T03:48:20;101868.50;;;0.65;88.67
21086;BME280;34247;50.064;19.970;2023-02-08T03:49:33;101861.50;;;0.63;88.96
21086;BME280;34247;50.064;19.970;2023-02-08T03:50:46;101865.91;;;0.65;88.80
21086;BME280;34247;50.064;19.970;2023-02-08T03:52:11;101855.34;;;0.59;88.89
21086;BME280;34247;50.064;19.970;2023-02-08T03:53:20;101858.00;;;0.64;88.78
21086;BME280;34247;50.064;19.970;2023-02-08T03:54:30;101852.75;;;0.59;88.94
21086;BME280;34247;50.064;19.970;2023-02-08T03:55:40;101851.03;;;0.61;89.16
21086;BME280;34247;50.064;19.970;2023-02-08T03:57:06;101861.56;;;0.66;89.11
21086;BME280;34247;50.064;19.970;2023-02-08T03:58:50;101853.59;;;0.58;89.17
21086;BME280;34247;50.064;19.970;2023-02-08T04:00:13;101858.84;;;0.61;89.13
21086;BME280;34247;50.064;19.970;2023-02-08T04:01:31;101855.41;;;0.64;88.85
21086;BME280;34247;50.064;19.970;2023-02-08T04:03:19;101855.47;;;0.67;88.86
21086;BME280;34247;50.064;19.970;2023-02-08T04:04:28;101842.28;;;0.59;88.73
21086;BME280;34247;50.064;19.970;2023-02-08T04:05:36;101850.13;;;0.59;89.45
21086;BME280;34247;50.064;19.970;2023-02-08T04:06:44;101842.25;;;0.58;89.09
21086;BME280;34247;50.064;19.970;2023-02-08T04:07:50;101843.19;;;0.61;89.39
21086;BME280;34247;50.064;19.970;2023-02-08T04:08:55;101851.91;;;0.62;89.40
21086;BME280;34247;50.064;19.970;2023-02-08T04:10:03;101849.25;;;0.60;89.68
21086;BME280;34247;50.064;19.970;2023-02-08T04:11:13;101832.63;;;0.55;89.72
21086;BME280;34247;50.064;19.970;2023-02-08T04:12:18;101834.41;;;0.58;89.79
21086;BME280;34247;50.064;19.970;2023-02-08T04:13:24;101848.41;;;0.61;89.81
21086;BME280;34247;50.064;19.970;2023-02-08T04:14:28;101831.78;;;0.58;89.62
21086;BME280;34247;50.064;19.970;2023-02-08T04:15:33;101835.34;;;0.61;89.87
21086;BME280;34247;50.064;19.970;2023-02-08T04:16:37;101843.25;;;0.66;89.70
21086;BME280;34247;50.064;19.970;2023-02-08T04:17:42;101838.03;;;0.67;89.42
21086;BME280;34247;50.064;19.970;2023-02-08T04:18:47;101844.94;;;0.62;89.99
21086;BME280;34247;50.064;19.970;2023-02-08T04:19:52;101834.53;;;0.67;89.80
21086;BME280;34247;50.064;19.970;2023-02-08T04:21:00;101822.25;;;0.61;89.52
21086;BME280;34247;50.064;19.970;2023-02-08T04:22:16;101834.63;;;0.74;89.53
21086;BME280;34247;50.064;19.970;2023-02-08T04:23:24;101818.84;;;0.65;89.15
21086;BME280;34247;50.064;19.970;2023-02-08T04:24:35;101821.56;;;0.73;89.42
21086;BME280;34247;50.064;19.970;2023-02-08T04:26:00;101831.19;;;0.78;89.32
21086;BME280;34247;50.064;19.970;2023-02-08T04:27:30;101825.03;;;0.73;89.00
21086;BME280;34247;50.064;19.970;2023-02-08T04:28:41;101832.91;;;0.78;89.49
21086;BME280;34247;50.064;19.970;2023-02-08T04:30:00;101825.13;;;0.81;89.29
21086;BME280;34247;50.064;19.970;2023-02-08T04:31:36;101828.56;;;0.78;89.42
21086;BME280;34247;50.064;19.970;2023-02-08T04:32:56;101829.41;;;0.76;89.40
21086;BME280;34247;50.064;19.970;2023-02-08T04:34:20;101825.94;;;0.75;89.74
21086;BME280;34247;50.064;19.970;2023-02-08T04:35:30;101822.50;;;0.81;89.70
21086;BME280;34247;50.064;19.970;2023-02-08T04:36:40;101820.78;;;0.81;89.80
21086;BME280;34247;50.064;19.970;2023-02-08T04:38:17;101811.91;;;0.70;90.00
21086;BME280;34247;50.064;19.970;2023-02-08T04:39:26;101823.34;;;0.78;90.21
21086;BME280;34247;50.064;19.970;2023-02-08T04:40:44;101827.59;;;0.72;90.59
21086;BME280;34247;50.064;19.970;2023-02-08T04:41:52;101833.78;;;0.78;90.42
21086;BME280;34247;50.064;19.970;2023-02-08T04:43:00;101834.72;;;0.80;90.42
21086;BME280;34247;50.064;19.970;2023-02-08T04:44:23;101839.94;;;0.80;90.59
21086;BME280;34247;50.064;19.970;2023-02-08T04:45:32;101839.00;;;0.77;90.39
21086;BME280;34247;50.064;19.970;2023-02-08T04:46:40;101842.50;;;0.79;90.60
21086;BME280;34247;50.064;19.970;2023-02-08T04:47:51;101848.66;;;0.81;90.21
21086;BME280;34247;50.064;19.970;2023-02-08T04:48:58;101838.16;;;0.79;90.56
21086;BME280;34247;50.064;19.970;2023-02-08T04:50:17;101845.97;;;0.76;90.30
21086;BME280;34247;50.064;19.970;2023-02-08T04:51:24;101845.09;;;0.74;90.86
21086;BME280;34247;50.064;19.970;2023-02-08T04:52:32;101850.34;;;0.76;90.80
21086;BME280;34247;50.064;19.970;2023-02-08T04:53:39;101845.03;;;0.70;90.97
21086;BME280;34247;50.064;19.970;2023-02-08T04:54:58;101848.50;;;0.70;91.31
21086;BME280;34247;50.064;19.970;2023-02-08T04:56:16;101858.19;;;0.77;91.08
21086;BME280;34247;50.064;19.970;2023-02-08T04:57:27;101859.84;;;0.72;91.00
21086;BME280;34247;50.064;19.970;2023-02-08T04:58:35;101859.03;;;0.75;91.20
21086;BME280;34247;50.064;19.970;2023-02-08T04:59:43;101858.16;;;0.74;91.05
21086;BME280;34247;50.064;19.970;2023-02-08T05:00:53;101857.22;;;0.69;91.31
21086;BME280;34247;50.064;19.970;2023-02-08T05:01:59;101870.38;;;0.75;91.08
21086;BME280;34247;50.064;19.970;2023-02-08T05:03:08;101857.13;;;0.63;91.53
21086;BME280;34247;50.064;19.970;2023-02-08T05:04:13;101855.47;;;0.68;91.14
21086;BME280;34247;50.064;19.970;2023-02-08T05:05:19;101867.75;;;0.75;91.23
21086;BME280;34247;50.064;19.970;2023-02-08T05:06:29;101871.28;;;0.77;91.33
21086;BME280;34247;50.064;19.970;2023-02-08T05:07:37;101867.75;;;0.75;91.12
21086;BME280;34247;50.064;19.970;2023-02-08T05:08:41;101873.91;;;0.79;90.69
21086;BME280;34247;50.064;19.970;2023-02-08T05:09:45;101881.78;;;0.82;90.92
21086;BME280;34247;50.064;19.970;2023-02-08T05:10:54;101863.41;;;0.77;90.94
21086;BME280;34247;50.064;19.970;2023-02-08T05:12:15;101874.75;;;0.78;90.86
21086;BME280;34247;50.064;19.970;2023-02-08T05:13:20;101869.41;;;0.67;91.07
21086;BME280;34247;50.064;19.970;2023-02-08T05:14:45;101882.50;;;0.72;91.34
21086;BME280;34247;50.064;19.970;2023-02-08T05:15:59;101874.53;;;0.61;91.81
21086;BME280;34247;50.064;19.970;2023-02-08T05:17:15;101881.59;;;0.65;91.74
21086;BME280;34247;50.064;19.970;2023-02-08T05:18:20;101886.88;;;0.71;91.48
21086;BME280;34247;50.064;19.970;2023-02-08T05:19:34;101885.13;;;0.70;91.68
21086;BME280;34247;50.064;19.970;2023-02-08T05:20:44;101862.25;;;0.55;91.67
21086;BME280;34247;50.064;19.970;2023-02-08T05:21:52;101875.41;;;0.59;91.58
21086;BME280;34247;50.064;19.970;2023-02-08T05:23:00;101870.09;;;0.54;91.66
21086;BME280;34247;50.064;19.970;2023-02-08T05:24:06;101884.97;;;0.58;91.71
21086;BME280;34247;50.064;19.970;2023-02-08T05:25:30;101884.03;;;0.53;91.51
21086;BME280;34247;50.064;19.970;2023-02-08T05:26:40;101884.06;;;0.58;91.66
21086;BME280;34247;50.064;19.970;2023-02-08T05:27:48;101884.88;;;0.52;91.69
21086;BME280;34247;50.064;19.970;2023-02-08T05:29:04;101881.41;;;0.53;91.92
21086;BME280;34247;50.064;19.970;2023-02-08T05:30:33;101886.66;;;0.56;91.64
21086;BME280;34247;50.064;19.970;2023-02-08T05:31:50;101881.41;;;0.53;91.87
21086;BME280;34247;50.064;19.970;2023-02-08T05:32:58;101884.91;;;0.53;91.65
21086;BME280;34247;50.064;19.970;2023-02-08T05:34:15;101876.97;;;0.49;91.63
21086;BME280;34247;50.064;19.970;2023-02-08T05:35:20;101893.59;;;0.51;91.87
21086;BME280;34247;50.064;19.970;2023-02-08T05:36:28;101888.28;;;0.46;92.03
21086;BME280;34247;50.064;19.970;2023-02-08T05:37:34;101898.84;;;0.54;92.00
21086;BME280;34247;50.064;19.970;2023-02-08T05:38:49;101897.09;;;0.53;92.00
21086;BME280;34247;50.064;19.970;2023-02-08T05:39:57;101894.47;;;0.53;92.22
21086;BME280;34247;50.064;19.970;2023-02-08T05:41:04;101890.13;;;0.52;91.90
21086;BME280;34247;50.064;19.970;2023-02-08T05:42:11;101895.34;;;0.52;92.31
21086;BME280;34247;50.064;19.970;2023-02-08T05:43:16;101888.34;;;0.51;92.00
21086;BME280;34247;50.064;19.970;2023-02-08T05:44:20;101904.16;;;0.60;91.96
21086;BME280;34247;50.064;19.970;2023-02-08T05:45:28;101905.03;;;0.59;91.66
21086;BME280;34247;50.064;19.970;2023-02-08T05:46:32;101902.31;;;0.53;91.58
21086;BME280;34247;50.064;19.970;2023-02-08T05:47:40;101900.59;;;0.55;91.66
21086;BME280;34247;50.064;19.970;2023-02-08T05:48:45;101914.53;;;0.55;91.66
21086;BME280;34247;50.064;19.970;2023-02-08T05:49:49;101901.47;;;0.55;91.68
21086;BME280;34247;50.064;19.970;2023-02-08T05:50:54;101911.06;;;0.55;91.78
21086;BME280;34247;50.064;19.970;2023-02-08T05:52:04;101911.94;;;0.57;91.71
21086;BME280;34247;50.064;19.970;2023-02-08T05:53:20;101923.31;;;0.59;91.42
21086;BME280;34247;50.064;19.970;2023-02-08T05:54:30;101918.88;;;0.52;91.52
21086;BME280;34247;50.064;19.970;2023-02-08T05:55:46;101926.66;;;0.50;91.58
21086;BME280;34247;50.064;19.970;2023-02-08T05:56:57;101922.25;;;0.45;92.18
21086;BME280;34247;50.064;19.970;2023-02-08T05:58:17;101932.66;;;0.43;92.23
21086;BME280;34247;50.064;19.970;2023-02-08T05:59:23;101923.09;;;0.44;92.19
21086;BME280;34247;50.064;19.970;2023-02-08T06:00:32;101932.75;;;0.49;91.84
21086;BME280;34247;50.064;19.970;2023-02-08T06:01:47;101928.38;;;0.48;91.76
21086;BME280;34247;50.064;19.970;2023-02-08T06:03:26;101935.44;;;0.54;91.66
21086;BME280;34247;50.064;19.970;2023-02-08T06:04:44;101927.63;;;0.55;91.95
21086;BME280;34247;50.064;19.970;2023-02-08T06:06:01;101917.91;;;0.47;91.87
21086;BME280;34247;50.064;19.970;2023-02-08T06:07:45;101940.69;;;0.57;91.92
21086;BME280;34247;50.064;19.970;2023-02-08T06:09:21;101933.72;;;0.56;91.60
21086;BME280;34247;50.064;19.970;2023-02-08T06:10:47;101935.34;;;0.49;92.36
21086;BME280;34247;50.064;19.970;2023-02-08T06:11:52;101934.47;;;0.49;91.94
21086;BME280;34247;50.064;19.970;2023-02-08T06:13:03;101943.28;;;0.54;92.00
21086;BME280;34247;50.064;19.970;2023-02-08T06:14:28;101942.41;;;0.53;91.93
21086;BME280;34247;50.064;19.970;2023-02-08T06:15:33;101933.69;;;0.54;91.49
21086;BME280;34247;50.064;19.970;2023-02-08T06:16:46;101931.06;;;0.53;91.38
21086;BME280;34247;50.064;19.970;2023-02-08T06:17:55;101929.34;;;0.53;91.55
21086;BME280;34247;50.064;19.970;2023-02-08T06:19:03;101932.81;;;0.52;91.50
21086;BME280;34247;50.064;19.970;2023-02-08T06:20:24;101937.19;;;0.55;91.27
21086;BME280;34247;50.064;19.970;2023-02-08T06:21:35;101942.41;;;0.55;91.32
21086;BME280;34247;50.064;19.970;2023-02-08T06:22:56;101931.88;;;0.49;91.12
21086;BME280;34247;50.064;19.970;2023-02-08T06:24:01;101929.31;;;0.52;91.17
21086;BME280;34247;50.064;19.970;2023-02-08T06:25:18;101938.03;;;0.51;91.25
21086;BME280;34247;50.064;19.970;2023-02-08T06:26:35;101933.69;;;0.53;91.22
21086;BME280;34247;50.064;19.970;2023-02-08T06:27:50;101949.28;;;0.48;91.12
21086;BME280;34247;50.064;19.970;2023-02-08T06:29:15;101942.28;;;0.46;91.00
21086;BME280;34247;50.064;19.970;2023-02-08T06:30:26;101937.09;;;0.47;91.21
21086;BME280;34247;50.064;19.970;2023-02-08T06:31:39;101947.56;;;0.49;90.92
21086;BME280;34247;50.064;19.970;2023-02-08T06:33:00;101951.09;;;0.51;90.85
21086;BME280;34247;50.064;19.970;2023-02-08T06:34:19;101948.38;;;0.45;90.96
21086;BME280;34247;50.064;19.970;2023-02-08T06:35:23;101963.25;;;0.50;91.04
21086;BME280;34247;50.064;19.970;2023-02-08T06:36:46;101966.81;;;0.54;90.77
21086;BME280;34247;50.064;19.970;2023-02-08T06:38:03;101964.19;;;0.54;90.52
21086;BME280;34247;50.064;19.970;2023-02-08T06:39:28;101962.44;;;0.54;90.61
21086;BME280;34247;50.064;19.970;2023-02-08T06:40:37;101960.72;;;0.55;90.88
21086;BME280;34247;50.064;19.970;2023-02-08T06:41:49;101965.09;;;0.56;90.58
21086;BME280;34247;50.064;19.970;2023-02-08T06:43:01;101965.06;;;0.53;90.68
21086;BME280;34247;50.064;19.970;2023-02-08T06:44:34;101969.50;;;0.59;90.43
21086;BME280;34247;50.064;19.970;2023-02-08T06:46:03;101972.13;;;0.60;90.50
21086;BME280;34247;50.064;19.970;2023-02-08T06:47:14;101962.44;;;0.54;90.69
21086;BME280;34247;50.064;19.970;2023-02-08T06:48:21;101965.97;;;0.57;90.82
21086;BME280;34247;50.064;19.970;2023-02-08T06:49:29;101973.88;;;0.61;90.72
21086;BME280;34247;50.064;19.970;2023-02-08T06:50:53;101966.91;;;0.62;90.70
21086;BME280;34247;50.064;19.970;2023-02-08T06:52:18;101962.56;;;0.62;90.88
21086;BME280;34247;50.064;19.970;2023-02-08T06:53:22;101968.69;;;0.64;90.90
21086;BME280;34247;50.064;19.970;2023-02-08T06:54:32;101970.50;;;0.68;90.42
21086;BME280;34247;50.064;19.970;2023-02-08T06:55:50;101964.41;;;0.69;90.63
21086;BME280;34247;50.064;19.970;2023-02-08T06:57:16;101966.16;;;0.70;90.46
21086;BME280;34247;50.064;19.970;2023-02-08T06:58:24;101971.41;;;0.70;90.37
21086;BME280;34247;50.064;19.970;2023-02-08T06:59:35;101968.81;;;0.72;90.13
21086;BME280;34247;50.064;19.970;2023-02-08T07:00:50;101965.28;;;0.68;90.38
21086;BME280;34247;50.064;19.970;2023-02-08T07:02:19;101971.38;;;0.67;90.32
21086;BME280;34247;50.064;19.970;2023-02-08T07:03:30;101965.28;;;0.68;90.24
21086;BME280;34247;50.064;19.970;2023-02-08T07:04:41;101976.69;;;0.73;90.38
21086;BME280;34247;50.064;19.970;2023-02-08T07:05:55;101982.81;;;0.74;90.18
21086;BME280;34247;50.064;19.970;2023-02-08T07:07:18;101978.47;;;0.76;89.82
21086;BME280;34247;50.064;19.970;2023-02-08T07:08:24;101971.47;;;0.75;89.89
21086;BME280;34247;50.064;19.970;2023-02-08T07:09:39;101975.88;;;0.77;90.14
21086;BME280;34247;50.064;19.970;2023-02-08T07:11:17;101973.16;;;0.71;89.88
21086;BME280;34247;50.064;19.970;2023-02-08T07:12:36;101985.44;;;0.75;89.89